Parma Airport LIMP

Flugplatz Daten

Name: Parma Airport

Ident: LIMP

Lat: 44,82450104

Long: 10,29640007

Platzhöhe: 161 ft

IataCode: PMF

City: Parma

Metar

2021/08/05 12:50
LIMP 051250Z 30005KT 250V340 9999 VCSH FEW030CB 30/14 Q1006

Taf

2021/08/05 12:00
TAF LIMP 051100Z 0512/0612 32010KT 9999 FEW040
BECMG 0516/0518 23012KT
BECMG 0602/0604 VRB05KT
Gewünschte Webcam nicht vorhanden? Dann fügen Sie eine hinzu. Sie wird dann so schnell wie möglich freigeschaltet
Url: Title: